Time;durP1;ratioP1;P1;durP2;ratioP2;P2;SDS_P1;SDS_P2;PMS_P1;PMS_P2;Temp;Humidity;BMP_temperature;BMP_pressure;BME280_temperature;BME280_humidity;BME280_pressure;Samples;Min_cycle;Max_cycle;Signal;HPM_P1;HPM_P2
2021/04/29 00:02:08;;;;;;;18.40;7.88;;;8.90;99.90;;;;;;5012406;28;20180;-84
2021/04/29 00:04:36;;;;;;;16.33;8.73;;;8.90;99.90;;;;;;5021514;28;20057;-83
2021/04/29 00:07:02;;;;;;;15.75;9.05;;;8.90;99.90;;;;;;5011686;28;20050;-84
2021/04/29 00:09:30;;;;;;;17.02;9.30;;;8.90;99.90;;;;;;5024651;28;20080;-84
2021/04/29 00:11:56;;;;;;;15.48;9.05;;;8.90;99.90;;;;;;5028184;28;20166;-84
2021/04/29 00:14:23;;;;;;;15.75;9.23;;;8.80;99.90;;;;;;5031801;28;20581;-84
2021/04/29 00:16:50;;;;;;;16.35;10.35;;;8.80;99.90;;;;;;5012617;28;20111;-86
2021/04/29 00:19:16;;;;;;;13.95;8.45;;;8.80;99.90;;;;;;5028366;28;20060;-85
2021/04/29 00:21:43;;;;;;;20.77;9.88;;;8.70;99.90;;;;;;5011948;28;20080;-85
2021/04/29 00:24:09;;;;;;;17.58;9.50;;;8.70;99.90;;;;;;5013189;28;20096;-85
2021/04/29 00:26:36;;;;;;;14.10;9.63;;;8.70;99.90;;;;;;5008965;28;20061;-87
2021/04/29 00:29:03;;;;;;;18.77;9.70;;;8.70;99.90;;;;;;5010510;28;20077;-83
2021/04/29 00:31:33;;;;;;;20.88;10.88;;;8.60;99.90;;;;;;4995926;28;20133;-83
2021/04/29 00:33:59;;;;;;;17.83;11.00;;;8.60;99.90;;;;;;5004379;28;20056;-85
2021/04/29 00:36:30;;;;;;;14.77;10.60;;;8.50;99.90;;;;;;5013536;28;20091;-83
2021/04/29 00:38:56;;;;;;;13.02;9.57;;;8.50;99.90;;;;;;4994621;28;20049;-86
2021/04/29 00:41:24;;;;;;;17.58;10.18;;;8.50;99.90;;;;;;5003709;28;20138;-84
2021/04/29 00:43:53;;;;;;;18.38;10.18;;;8.40;99.90;;;;;;5000166;28;20054;-84
2021/04/29 00:46:21;;;;;;;17.98;11.63;;;8.40;99.90;;;;;;5028519;28;20073;-84
2021/04/29 00:48:47;;;;;;;17.90;10.43;;;8.40;99.90;;;;;;5020436;28;20053;-86
2021/04/29 00:51:17;;;;;;;22.73;11.30;;;8.30;99.90;;;;;;5007302;28;20072;-83
2021/04/29 00:53:45;;;;;;;23.15;12.07;;;8.30;99.90;;;;;;5008636;28;20053;-84
2021/04/29 00:56:11;;;;;;;23.75;12.55;;;8.30;99.90;;;;;;5014422;28;20141;-84
2021/04/29 00:58:38;;;;;;;21.17;11.45;;;8.30;99.90;;;;;;5012337;28;20061;-85
2021/04/29 01:01:05;;;;;;;19.17;11.45;;;8.30;99.90;;;;;;5017952;28;20084;-85
2021/04/29 01:03:44;;;;;;;16.77;10.02;;;8.20;99.90;;;;;;5034274;28;20096;-85
2021/04/29 01:06:47;;;;;;;22.13;12.18;;;8.30;99.90;;;;;;5030481;28;20105;-83
2021/04/29 01:09:17;;;;;;;18.67;11.98;;;8.20;99.90;;;;;;5011503;28;20150;-83
2021/04/29 01:11:49;;;;;;;21.17;12.10;;;8.20;99.90;;;;;;5029100;28;20498;-84
2021/04/29 01:14:17;;;;;;;19.05;11.63;;;8.20;99.90;;;;;;5030922;28;20056;-84
2021/04/29 01:16:43;;;;;;;19.60;12.63;;;8.20;99.90;;;;;;5012987;28;20610;-84
2021/04/29 01:19:13;;;;;;;19.30;12.18;;;8.20;99.90;;;;;;5014400;28;20041;-84
2021/04/29 01:21:40;;;;;;;26.02;13.45;;;8.20;99.90;;;;;;5015764;28;20068;-82
2021/04/29 01:24:21;;;;;;;20.30;12.35;;;8.20;99.90;;;;;;5028745;28;20056;-83
2021/04/29 01:26:52;;;;;;;26.92;13.73;;;8.10;99.90;;;;;;5012714;28;20053;-83
2021/04/29 01:29:22;;;;;;;20.23;13.10;;;8.10;99.90;;;;;;5031421;28;20045;-85
2021/04/29 01:31:51;;;;;;;21.27;12.50;;;8.10;99.90;;;;;;5032511;28;20478;-85
2021/04/29 01:34:21;;;;;;;18.00;11.85;;;8.10;99.90;;;;;;5017726;28;20558;-83
2021/04/29 01:36:51;;;;;;;17.33;12.27;;;8.00;99.90;;;;;;5031410;28;20107;-84
2021/04/29 01:39:19;;;;;;;20.25;12.55;;;8.00;99.90;;;;;;5028117;28;20041;-86
2021/04/29 01:41:50;;;;;;;23.48;13.15;;;8.00;99.90;;;;;;5025674;28;20076;-84
2021/04/29 01:44:18;;;;;;;20.17;13.00;;;8.10;99.90;;;;;;5020388;28;20077;-83
2021/04/29 01:46:47;;;;;;;27.50;13.57;;;8.00;99.90;;;;;;5014956;28;20060;-85
2021/04/29 01:49:14;;;;;;;20.85;14.00;;;8.00;99.90;;;;;;5013002;28;20084;-85
2021/04/29 01:51:41;;;;;;;24.95;14.00;;;8.00;99.90;;;;;;5031355;28;20054;-85
2021/04/29 01:54:10;;;;;;;20.02;12.70;;;8.00;99.90;;;;;;5014234;28;20866;-84
2021/04/29 01:56:37;;;;;;;25.08;14.55;;;8.00;99.90;;;;;;5028303;28;20136;-84
2021/04/29 01:59:08;;;;;;;22.75;13.90;;;8.00;99.90;;;;;;5020044;28;20073;-84
2021/04/29 02:01:39;;;;;;;20.25;13.55;;;8.10;99.90;;;;;;5012861;28;20586;-83
2021/04/29 02:04:10;;;;;;;23.13;13.13;;;8.10;99.90;;;;;;5033456;28;20064;-84
2021/04/29 02:06:41;;;;;;;27.83;13.55;;;8.10;99.90;;;;;;5031401;28;20084;-85
2021/04/29 02:09:08;;;;;;;21.65;13.45;;;8.20;99.90;;;;;;5032781;28;21265;-84
2021/04/29 02:11:44;;;;;;;22.92;13.25;;;8.20;99.90;;;;;;5037173;28;20137;-84
2021/04/29 02:14:13;;;;;;;22.05;12.82;;;8.20;99.90;;;;;;5016078;28;20045;-85
2021/04/29 02:16:46;;;;;;;21.70;11.95;;;8.20;99.90;;;;;;5011870;28;20065;-85
2021/04/29 02:19:14;;;;;;;22.88;12.88;;;8.20;99.90;;;;;;5029891;28;20049;-86
2021/04/29 02:21:44;;;;;;;21.10;12.07;;;8.20;99.90;;;;;;5011925;28;20106;-85
2021/04/29 02:24:11;;;;;;;24.63;13.35;;;8.20;99.90;;;;;;5044739;28;20064;-85
2021/04/29 02:26:38;;;;;;;20.70;13.48;;;8.20;99.90;;;;;;5025092;28;20069;-85
2021/04/29 02:29:06;;;;;;;21.20;13.30;;;8.30;99.90;;;;;;5031938;28;20128;-84
2021/04/29 02:31:35;;;;;;;20.20;11.93;;;8.30;99.90;;;;;;5039367;28;20469;-85
2021/04/29 02:34:04;;;;;;;20.60;11.85;;;8.30;99.90;;;;;;5029611;28;20503;-85
2021/04/29 02:36:31;;;;;;;20.95;12.15;;;8.30;99.90;;;;;;5035483;28;20099;-83
2021/04/29 02:38:58;;;;;;;21.40;13.02;;;8.30;99.90;;;;;;5012804;28;20053;-86
2021/04/29 02:41:26;;;;;;;19.20;12.20;;;8.30;99.90;;;;;;5035193;28;20049;-84
2021/04/29 02:43:53;;;;;;;21.23;12.23;;;8.30;99.90;;;;;;5015819;28;20116;-84
2021/04/29 02:46:20;;;;;;;25.60;13.02;;;8.30;99.90;;;;;;5019547;28;20058;-84
2021/04/29 02:48:46;;;;;;;24.13;13.35;;;8.30;99.90;;;;;;5007486;28;20101;-84
2021/04/29 02:51:13;;;;;;;19.33;12.82;;;8.30;99.90;;;;;;4998275;28;20054;-84
2021/04/29 02:53:42;;;;;;;18.55;12.68;;;8.30;99.90;;;;;;4996267;28;20177;-84
2021/04/29 02:56:08;;;;;;;21.70;12.93;;;8.30;99.90;;;;;;4997422;28;20121;-84
2021/04/29 02:59:01;;;;;;;22.20;12.85;;;8.30;99.90;;;;;;4994249;28;20073;-85
2021/04/29 03:01:27;;;;;;;19.02;12.57;;;8.30;99.90;;;;;;4992125;28;20130;-85
2021/04/29 03:03:54;;;;;;;22.27;13.95;;;8.30;99.90;;;;;;4995438;28;20064;-85
2021/04/29 03:06:21;;;;;;;22.27;13.43;;;8.30;99.90;;;;;;5001571;28;20060;-85
2021/04/29 03:08:50;;;;;;;19.55;12.35;;;8.30;99.90;;;;;;5001717;28;20491;-84
2021/04/29 03:11:17;;;;;;;19.15;12.23;;;8.30;99.90;;;;;;5011612;28;20037;-85
2021/04/29 03:13:43;;;;;;;22.38;12.95;;;8.40;99.90;;;;;;4996236;28;20081;-84
2021/04/29 03:16:10;;;;;;;20.92;11.70;;;8.40;99.90;;;;;;5000912;28;20129;-84
2021/04/29 03:18:36;;;;;;;29.27;12.75;;;8.40;99.90;;;;;;4997347;28;20524;-85
2021/04/29 03:21:02;;;;;;;20.55;12.48;;;8.40;99.90;;;;;;5000488;28;20099;-84
2021/04/29 03:23:29;;;;;;;18.73;12.10;;;8.40;99.90;;;;;;4996023;28;20053;-83
2021/04/29 03:25:57;;;;;;;19.20;13.05;;;8.50;99.90;;;;;;5012233;28;20057;-85
2021/04/29 03:28:23;;;;;;;19.10;13.35;;;8.50;99.90;;;;;;4995930;28;20091;-83
2021/04/29 03:30:49;;;;;;;21.75;13.02;;;8.50;99.90;;;;;;5009728;28;20066;-86
2021/04/29 03:33:16;;;;;;;20.58;12.77;;;8.50;99.90;;;;;;4992287;28;20053;-85
2021/04/29 03:35:42;;;;;;;23.88;14.50;;;8.50;99.90;;;;;;5008910;28;20069;-85
2021/04/29 03:38:09;;;;;;;19.77;12.60;;;8.50;99.90;;;;;;5006192;28;20049;-84
2021/04/29 03:40:36;;;;;;;22.90;14.00;;;8.50;99.90;;;;;;4991414;28;20054;-84
2021/04/29 03:43:03;;;;;;;19.90;13.18;;;8.50;99.90;;;;;;5008511;28;20127;-85
2021/04/29 03:45:29;;;;;;;20.35;13.80;;;8.50;99.90;;;;;;5008532;28;20050;-84
2021/04/29 03:47:56;;;;;;;25.77;13.73;;;8.40;99.90;;;;;;4994265;28;20492;-85
2021/04/29 03:50:23;;;;;;;21.45;13.18;;;8.40;99.90;;;;;;5030363;28;20212;-83
2021/04/29 03:52:49;;;;;;;22.00;14.60;;;8.40;99.90;;;;;;5009870;28;20056;-84
2021/04/29 03:55:16;;;;;;;22.23;13.27;;;8.40;99.90;;;;;;5015496;28;20678;-85
2021/04/29 03:57:44;;;;;;;22.02;13.20;;;8.30;99.90;;;;;;5014649;28;20045;-84
2021/04/29 04:00:11;;;;;;;24.65;13.40;;;8.30;99.90;;;;;;5012317;28;20073;-84
2021/04/29 04:02:37;;;;;;;27.10;13.80;;;8.30;99.90;;;;;;5030191;28;20144;-83
2021/04/29 04:05:27;;;;;;;21.52;14.40;;;8.30;99.90;;;;;;5014813;28;20080;-84
2021/04/29 04:07:53;;;;;;;23.23;14.73;;;8.30;99.90;;;;;;5003026;28;20369;-84
2021/04/29 04:10:19;;;;;;;33.00;15.88;;;8.30;99.90;;;;;;5030594;28;20439;-83
2021/04/29 04:12:45;;;;;;;23.85;14.40;;;8.30;99.90;;;;;;5010956;28;20068;-85
2021/04/29 04:15:12;;;;;;;26.42;14.48;;;8.30;99.90;;;;;;5032219;28;20119;-85
2021/04/29 04:17:38;;;;;;;23.38;15.32;;;8.30;99.90;;;;;;5025154;28;20476;-84
2021/04/29 04:20:19;;;;;;;22.90;14.80;;;8.40;99.90;;;;;;5017281;28;20111;-84
2021/04/29 04:22:46;;;;;;;24.67;15.88;;;8.40;99.90;;;;;;5028045;28;20421;-85
2021/04/29 04:25:13;;;;;;;26.15;16.15;;;8.40;99.90;;;;;;5009372;28;20158;-85
2021/04/29 04:27:39;;;;;;;24.33;15.27;;;8.40;99.90;;;;;;5015126;28;20151;-85
2021/04/29 04:30:06;;;;;;;29.55;16.45;;;8.40;99.90;;;;;;5010170;28;20035;-84
2021/04/29 04:32:33;;;;;;;21.17;16.02;;;8.40;99.90;;;;;;5015737;28;20485;-84
2021/04/29 04:35:02;;;;;;;27.13;17.70;;;8.50;99.90;;;;;;5011491;28;20080;-83
2021/04/29 04:37:29;;;;;;;24.58;16.60;;;8.50;99.90;;;;;;5027268;28;20049;-84
2021/04/29 04:39:55;;;;;;;28.13;16.75;;;8.50;99.90;;;;;;5010975;28;20080;-83
2021/04/29 04:42:21;;;;;;;28.77;16.15;;;8.60;99.90;;;;;;5030004;28;20069;-84
2021/04/29 04:44:48;;;;;;;29.83;17.10;;;8.60;99.90;;;;;;5011954;28;20061;-83
2021/04/29 04:47:14;;;;;;;27.27;16.40;;;8.60;99.90;;;;;;5019726;28;20049;-84
2021/04/29 04:49:41;;;;;;;31.15;18.08;;;8.60;99.90;;;;;;5013571;28;20049;-83
2021/04/29 04:52:07;;;;;;;28.30;18.65;;;8.60;99.90;;;;;;5028845;28;20053;-85
2021/04/29 04:54:35;;;;;;;35.20;17.83;;;8.60;99.90;;;;;;5011876;28;20095;-84
2021/04/29 04:57:01;;;;;;;31.10;17.42;;;8.70;99.90;;;;;;5011857;28;20076;-85
2021/04/29 04:59:28;;;;;;;26.65;17.50;;;8.60;99.90;;;;;;5028992;28;20152;-85
2021/04/29 05:01:55;;;;;;;27.27;16.35;;;8.60;99.90;;;;;;5017974;28;20060;-85
2021/04/29 05:04:27;;;;;;;28.10;16.35;;;8.60;99.90;;;;;;5016896;28;20521;-83
2021/04/29 05:06:57;;;;;;;28.10;17.05;;;8.60;99.90;;;;;;5015502;28;20069;-85
2021/04/29 05:09:23;;;;;;;24.02;15.77;;;8.70;99.90;;;;;;5013658;28;20115;-86
2021/04/29 05:11:52;;;;;;;30.75;15.57;;;8.70;99.90;;;;;;5032468;28;20052;-85
2021/04/29 05:14:19;;;;;;;23.17;15.25;;;8.70;99.90;;;;;;5019589;28;20109;-85
2021/04/29 05:16:45;;;;;;;24.65;15.05;;;8.70;99.90;;;;;;5017061;28;20045;-85
2021/04/29 05:19:12;;;;;;;24.15;14.50;;;8.70;99.90;;;;;;5014089;28;20057;-85
2021/04/29 05:21:38;;;;;;;29.00;14.30;;;8.70;99.90;;;;;;5020501;28;20053;-85
2021/04/29 05:24:05;;;;;;;29.67;16.50;;;8.70;99.90;;;;;;5017624;28;20117;-85
2021/04/29 05:26:32;;;;;;;22.23;14.15;;;8.80;99.90;;;;;;5016117;28;20111;-85
2021/04/29 05:28:59;;;;;;;22.45;14.80;;;8.80;99.90;;;;;;5014707;28;20500;-85
2021/04/29 05:31:25;;;;;;;25.15;15.00;;;8.80;99.90;;;;;;5014930;28;20053;-85
2021/04/29 05:33:52;;;;;;;24.27;15.38;;;8.80;99.90;;;;;;5014076;28;20113;-84
2021/04/29 05:36:18;;;;;;;23.50;14.15;;;8.80;99.90;;;;;;5034592;28;20049;-84
2021/04/29 05:38:44;;;;;;;29.98;16.33;;;8.80;99.90;;;;;;5016146;28;20148;-84
2021/04/29 05:41:11;;;;;;;23.45;15.73;;;8.70;99.90;;;;;;5029818;28;20038;-85
2021/04/29 05:43:37;;;;;;;23.60;15.68;;;8.70;99.90;;;;;;5016047;28;20178;-86
2021/04/29 05:46:06;;;;;;;31.58;16.13;;;8.70;99.90;;;;;;5028392;28;20128;-85
2021/04/29 05:48:32;;;;;;;31.10;17.13;;;8.70;99.90;;;;;;5031128;28;20057;-85
2021/04/29 05:50:59;;;;;;;33.38;17.48;;;8.60;99.90;;;;;;5033640;28;20449;-84
2021/04/29 05:53:25;;;;;;;29.48;16.42;;;8.60;99.90;;;;;;5023184;28;20076;-84
2021/04/29 05:55:52;;;;;;;28.25;16.77;;;8.60;99.90;;;;;;5035593;28;20099;-83
2021/04/29 05:58:18;;;;;;;22.95;15.25;;;8.50;99.90;;;;;;5020749;28;20084;-86
2021/04/29 06:00:45;;;;;;;23.55;15.60;;;8.50;99.90;;;;;;5013882;28;20073;-84
2021/04/29 06:03:11;;;;;;;31.20;16.17;;;8.50;99.90;;;;;;5015827;28;20046;-86
2021/04/29 06:05:40;;;;;;;28.98;15.60;;;8.50;99.90;;;;;;5016159;28;20064;-85
2021/04/29 06:08:07;;;;;;;31.38;17.42;;;8.50;99.90;;;;;;5010280;28;20057;-84
2021/04/29 06:10:35;;;;;;;28.88;18.00;;;8.50;99.90;;;;;;5032513;28;20108;-84
2021/04/29 06:13:03;;;;;;;31.85;18.00;;;8.50;99.90;;;;;;5016899;28;20103;-83
2021/04/29 06:15:29;;;;;;;33.47;18.20;;;8.40;99.90;;;;;;5015383;28;20099;-84
2021/04/29 06:17:56;;;;;;;31.08;17.35;;;8.40;99.90;;;;;;5030197;28;20084;-85
2021/04/29 06:20:23;;;;;;;24.13;15.82;;;8.30;99.90;;;;;;5026585;28;20061;-85
2021/04/29 06:22:49;;;;;;;30.80;18.17;;;8.30;99.90;;;;;;5011644;28;20099;-84
2021/04/29 06:25:17;;;;;;;34.80;16.92;;;8.30;99.90;;;;;;5015764;28;20041;-84
2021/04/29 06:27:44;;;;;;;28.20;18.38;;;8.20;99.90;;;;;;5031327;28;20049;-84
2021/04/29 06:30:11;;;;;;;39.60;19.63;;;8.20;99.90;;;;;;5007149;28;20057;-85
2021/04/29 06:32:37;;;;;;;30.60;18.17;;;8.10;99.90;;;;;;5029368;28;20459;-82
2021/04/29 06:35:04;;;;;;;39.97;18.77;;;8.10;99.90;;;;;;5010382;28;20051;-83
2021/04/29 06:37:31;;;;;;;36.30;20.85;;;8.10;99.90;;;;;;5015222;28;20029;-83
2021/04/29 06:39:57;;;;;;;43.72;20.77;;;8.00;99.90;;;;;;5011803;28;20131;-84
2021/04/29 06:42:23;;;;;;;37.90;21.17;;;8.00;99.90;;;;;;5021469;28;20484;-83
2021/04/29 06:44:52;;;;;;;39.63;21.35;;;8.00;99.90;;;;;;5013721;28;20590;-82
2021/04/29 06:47:26;;;;;;;46.78;21.13;;;8.00;99.90;;;;;;5045177;28;20053;-83
2021/04/29 06:49:54;;;;;;;37.45;20.73;;;8.00;99.90;;;;;;5017897;28;20112;-82
2021/04/29 06:52:20;;;;;;;42.75;22.17;;;8.00;99.90;;;;;;5010759;28;20064;-83
2021/04/29 06:54:49;;;;;;;43.45;21.65;;;7.90;99.90;;;;;;4983903;28;20094;-85
2021/04/29 06:57:16;;;;;;;46.70;22.27;;;7.90;99.90;;;;;;5024699;28;20049;-84
2021/04/29 06:59:43;;;;;;;44.92;23.30;;;7.90;99.90;;;;;;5021578;28;20050;-84
2021/04/29 07:02:10;;;;;;;49.30;22.90;;;7.90;99.90;;;;;;5022676;28;20054;-84
2021/04/29 07:04:50;;;;;;;43.38;23.17;;;7.90;99.90;;;;;;5007855;28;20045;-84
2021/04/29 07:07:19;;;;;;;44.65;23.88;;;7.90;99.90;;;;;;5020008;28;20045;-84
2021/04/29 07:09:46;;;;;;;44.72;23.98;;;7.90;99.90;;;;;;5016558;28;20046;-84
2021/04/29 07:12:13;;;;;;;42.60;23.67;;;7.80;99.90;;;;;;5007248;28;20135;-85
2021/04/29 07:14:39;;;;;;;50.58;22.75;;;7.90;99.90;;;;;;5001875;28;20531;-85
2021/04/29 07:17:06;;;;;;;41.83;23.58;;;7.90;99.90;;;;;;4997988;28;20076;-84
2021/04/29 07:19:34;;;;;;;44.45;24.17;;;7.80;99.90;;;;;;4995540;28;20081;-85
2021/04/29 07:22:00;;;;;;;44.25;22.25;;;7.80;99.90;;;;;;4985894;28;20132;-85
2021/04/29 07:24:27;;;;;;;43.20;22.33;;;7.90;99.90;;;;;;4994358;28;20076;-85
2021/04/29 07:26:54;;;;;;;41.95;22.83;;;7.80;99.90;;;;;;4995845;28;20049;-82
2021/04/29 07:29:20;;;;;;;45.13;23.27;;;7.80;99.90;;;;;;4992163;28;20049;-83
2021/04/29 07:31:46;;;;;;;52.35;24.65;;;7.90;99.90;;;;;;5001316;28;20045;-86
2021/04/29 07:34:17;;;;;;;49.13;23.77;;;7.90;99.90;;;;;;4997054;28;20084;-84
2021/04/29 07:36:44;;;;;;;47.85;24.50;;;7.90;99.90;;;;;;5014755;28;20053;-85
2021/04/29 07:39:10;;;;;;;51.22;23.52;;;7.90;99.90;;;;;;5009926;28;20046;-86
2021/04/29 07:41:37;;;;;;;51.60;25.52;;;7.90;99.90;;;;;;4993993;28;20115;-84
2021/04/29 07:44:03;;;;;;;47.35;24.33;;;7.80;99.90;;;;;;4994710;28;20381;-83
2021/04/29 07:46:31;;;;;;;52.45;25.85;;;7.80;99.90;;;;;;5028378;28;20548;-83
2021/04/29 07:48:58;;;;;;;49.35;25.20;;;7.90;99.90;;;;;;5011413;28;20054;-83
2021/04/29 07:51:25;;;;;;;55.08;24.13;;;7.90;99.90;;;;;;4993949;28;20681;-84
2021/04/29 07:53:51;;;;;;;50.33;26.27;;;7.90;99.90;;;;;;4988838;28;20195;-84
2021/04/29 07:56:18;;;;;;;51.45;25.90;;;7.90;99.90;;;;;;4993110;28;20042;-83
2021/04/29 07:58:44;;;;;;;56.80;26.48;;;7.90;99.90;;;;;;4997404;28;20165;-84
2021/04/29 08:01:11;;;;;;;59.47;26.35;;;7.90;99.90;;;;;;4995195;28;20062;-84
2021/04/29 08:03:37;;;;;;;46.25;25.55;;;7.90;99.90;;;;;;4995080;28;20633;-83
2021/04/29 08:06:04;;;;;;;44.38;24.85;;;7.90;99.90;;;;;;4995228;28;20045;-83
2021/04/29 08:08:30;;;;;;;44.88;23.13;;;7.90;99.90;;;;;;4992494;28;20643;-83
2021/04/29 08:10:57;;;;;;;62.58;24.33;;;7.80;99.90;;;;;;4995562;28;20050;-85
2021/04/29 08:13:23;;;;;;;50.58;25.38;;;7.80;99.90;;;;;;5011049;28;20053;-85
2021/04/29 08:15:49;;;;;;;50.63;24.38;;;7.80;99.90;;;;;;4990513;28;20158;-84
2021/04/29 08:18:15;;;;;;;56.22;25.10;;;7.70;99.90;;;;;;4990674;28;20127;-83
2021/04/29 08:20:42;;;;;;;56.55;24.65;;;7.70;99.90;;;;;;4994360;28;20069;-83
2021/04/29 08:23:09;;;;;;;51.97;25.30;;;7.70;99.90;;;;;;5009921;28;20085;-84
2021/04/29 08:25:36;;;;;;;59.95;24.30;;;7.70;99.90;;;;;;4992489;28;20112;-84
2021/04/29 08:28:03;;;;;;;57.53;24.85;;;7.70;99.90;;;;;;4991666;28;20137;-84
2021/04/29 08:30:29;;;;;;;59.17;25.73;;;7.70;99.90;;;;;;5008608;28;20046;-83
2021/04/29 08:32:58;;;;;;;55.20;25.17;;;7.70;99.90;;;;;;4992706;28;20509;-84
2021/04/29 08:35:25;;;;;;;53.33;23.02;;;7.70;99.90;;;;;;4993373;28;20121;-83
2021/04/29 08:37:52;;;;;;;60.22;24.85;;;7.70;99.90;;;;;;4994044;28;20107;-83
2021/04/29 08:40:20;;;;;;;55.60;26.30;;;7.70;99.90;;;;;;4995891;28;20079;-83
2021/04/29 08:42:47;;;;;;;49.78;23.40;;;7.70;99.90;;;;;;4985421;28;20088;-84
2021/04/29 08:45:14;;;;;;;50.40;23.55;;;7.70;99.90;;;;;;4995274;28;20061;-84
2021/04/29 08:47:41;;;;;;;46.13;22.33;;;7.80;99.90;;;;;;4996818;28;20045;-83
2021/04/29 08:50:16;;;;;;;51.85;24.42;;;7.80;99.90;;;;;;5006833;28;20135;-85
2021/04/29 08:52:43;;;;;;;62.85;24.88;;;7.80;99.90;;;;;;5010190;28;20603;-83
2021/04/29 08:55:15;;;;;;;48.10;23.80;;;7.80;99.90;;;;;;4992071;28;20059;-83
2021/04/29 08:57:43;;;;;;;46.42;23.65;;;7.90;99.90;;;;;;4995248;28;20058;-83
2021/04/29 09:00:11;;;;;;;49.03;23.52;;;7.90;99.90;;;;;;5006898;28;20092;-84
2021/04/29 09:02:38;;;;;;;50.60;24.00;;;8.00;99.90;;;;;;5008689;28;20062;-84
2021/04/29 09:05:23;;;;;;;46.80;21.98;;;8.00;99.90;;;;;;5011396;28;20112;-84
2021/04/29 09:08:02;;;;;;;40.35;21.20;;;8.00;99.90;;;;;;5015177;28;20394;-83
2021/04/29 09:10:40;;;;;;;46.25;22.73;;;8.10;99.90;;;;;;4994728;28;20085;-83
2021/04/29 09:13:33;;;;;;;39.10;20.60;;;8.20;99.90;;;;;;5009665;28;20085;-83
2021/04/29 09:16:11;;;;;;;43.97;21.38;;;8.20;99.90;;;;;;4991611;28;20124;-85
2021/04/29 09:18:40;;;;;;;43.65;22.08;;;8.20;99.90;;;;;;5011875;28;20080;-84
2021/04/29 09:21:13;;;;;;;43.67;21.77;;;8.20;99.90;;;;;;4995765;28;20503;-83
2021/04/29 09:23:42;;;;;;;41.63;21.88;;;8.20;99.90;;;;;;5000369;28;20100;-84
2021/04/29 09:26:17;;;;;;;48.75;23.60;;;8.20;99.90;;;;;;5004676;28;20068;-81
2021/04/29 09:28:52;;;;;;;39.83;20.63;;;8.20;99.90;;;;;;5012089;28;20645;-83
2021/04/29 09:31:26;;;;;;;39.63;21.27;;;8.20;99.90;;;;;;4986673;28;20833;-84
2021/04/29 09:33:55;;;;;;;41.38;20.80;;;8.20;99.90;;;;;;4993873;28;20046;-84
2021/04/29 09:36:26;;;;;;;42.63;21.70;;;8.20;99.90;;;;;;5010143;28;20092;-83
2021/04/29 09:39:10;;;;;;;45.15;21.92;;;8.20;99.90;;;;;;4997680;28;20058;-84
2021/04/29 09:41:45;;;;;;;42.38;21.48;;;8.20;99.90;;;;;;4988084;28;20137;-82
2021/04/29 09:44:22;;;;;;;42.75;20.83;;;8.20;99.90;;;;;;5002101;28;20069;-83
2021/04/29 09:46:51;;;;;;;47.20;22.73;;;8.20;99.90;;;;;;5015045;28;20050;-84
2021/04/29 09:49:22;;;;;;;56.78;24.33;;;8.20;99.90;;;;;;5009044;28;20053;-84
2021/04/29 09:51:50;;;;;;;45.03;21.15;;;8.20;99.90;;;;;;5020360;28;20451;-81
2021/04/29 09:54:37;;;;;;;47.28;22.25;;;8.20;99.90;;;;;;5036244;28;20072;-83
2021/04/29 09:57:09;;;;;;;43.45;21.80;;;8.20;99.90;;;;;;5033103;28;20105;-85
2021/04/29 09:59:43;;;;;;;46.72;21.73;;;8.20;99.90;;;;;;5034076;28;20056;-85
2021/04/29 10:02:10;;;;;;;;;;;8.30;99.90;;;;;;5019575;28;20084;-83
2021/04/29 10:04:39;;;;;;;57.85;22.10;;;8.20;99.90;;;;;;5017166;28;19956;-84
2021/04/29 10:07:08;;;;;;;47.10;22.00;;;8.20;99.90;;;;;;5021504;28;20053;-83
2021/04/29 10:09:36;;;;;;;48.97;22.23;;;8.20;99.90;;;;;;5036487;28;20061;-83
2021/04/29 10:12:07;;;;;;;45.83;21.40;;;8.20;99.90;;;;;;5037996;28;20113;-84
2021/04/29 10:14:40;;;;;;;52.10;23.02;;;8.10;99.90;;;;;;5020678;28;20065;-83
2021/04/29 10:17:13;;;;;;;44.55;21.65;;;8.10;99.90;;;;;;5017854;28;20681;-84
2021/04/29 10:19:49;;;;;;;51.75;22.98;;;8.10;99.90;;;;;;5018801;28;20855;-84
2021/04/29 10:22:17;;;;;;;49.50;21.55;;;8.10;99.90;;;;;;5045379;28;20081;-83
2021/04/29 10:24:45;;;;;;;49.42;22.65;;;8.10;99.90;;;;;;5031509;28;20093;-83
2021/04/29 10:27:16;;;;;;;57.10;23.98;;;8.10;99.90;;;;;;5032350;28;20049;-83
2021/04/29 10:29:44;;;;;;;53.35;24.27;;;8.00;99.90;;;;;;5018355;28;20061;-83
2021/04/29 10:32:15;;;;;;;51.25;22.27;;;8.10;99.90;;;;;;5019804;28;20121;-82
2021/04/29 10:34:44;;;;;;;49.05;21.77;;;8.00;99.90;;;;;;5011786;28;20049;-84
2021/04/29 10:37:23;;;;;;;49.03;21.00;;;8.00;99.90;;;;;;5009352;28;20049;-83
2021/04/29 10:39:58;;;;;;;44.00;20.80;;;8.00;99.90;;;;;;5010905;28;20053;-83
2021/04/29 10:42:30;;;;;;;64.72;23.17;;;8.10;99.90;;;;;;5029458;28;20054;-84
2021/04/29 10:45:10;;;;;;;47.13;20.50;;;8.10;99.90;;;;;;5010443;28;20084;-84
2021/04/29 10:47:38;;;;;;;46.63;21.75;;;8.10;99.90;;;;;;5014081;28;20076;-82
2021/04/29 10:50:10;;;;;;;41.85;20.20;;;8.10;99.90;;;;;;5014643;28;20057;-86
2021/04/29 10:52:51;;;;;;;47.70;21.63;;;8.10;99.90;;;;;;5031299;28;20556;-83
2021/04/29 10:55:26;;;;;;;39.92;19.42;;;8.10;99.90;;;;;;5015952;28;20053;-82
2021/04/29 10:57:55;;;;;;;57.30;22.38;;;8.10;99.90;;;;;;5030956;28;20114;-83
2021/04/29 11:00:25;;;;;;;38.47;19.55;;;8.00;99.90;;;;;;5028097;28;20058;-83
2021/04/29 11:03:02;;;;;;;34.30;18.65;;;8.00;99.90;;;;;;5031180;28;20068;-84
2021/04/29 11:05:32;;;;;;;34.08;19.52;;;8.00;99.90;;;;;;5029445;28;20049;-84
2021/04/29 11:08:08;;;;;;;44.83;18.75;;;8.00;99.90;;;;;;5029455;28;20475;-84
2021/04/29 11:10:37;;;;;;;31.13;17.90;;;7.90;99.90;;;;;;5001475;28;20057;-85
2021/04/29 11:13:05;;;;;;;43.47;19.73;;;8.00;99.90;;;;;;5015953;28;20487;-85
2021/04/29 11:15:33;;;;;;;35.20;18.63;;;7.90;99.90;;;;;;5013047;28;20507;-84
2021/04/29 11:18:13;;;;;;;39.67;19.35;;;8.00;99.90;;;;;;5025919;28;20056;-83
2021/04/29 11:20:59;;;;;;;46.00;20.20;;;8.00;99.90;;;;;;5012031;28;20053;-86
2021/04/29 11:23:37;;;;;;;41.72;21.00;;;8.00;99.90;;;;;;5028271;28;20076;-84
2021/04/29 11:26:05;;;;;;;57.72;22.65;;;8.10;99.90;;;;;;5011259;28;20061;-84
2021/04/29 11:28:31;;;;;;;41.58;19.90;;;8.10;99.90;;;;;;5010049;28;20558;-82
2021/04/29 11:30:58;;;;;;;38.53;20.85;;;8.10;99.90;;;;;;5011802;28;20416;-83
2021/04/29 11:33:33;;;;;;;55.55;22.85;;;8.10;99.90;;;;;;5018788;28;21018;-85
2021/04/29 11:36:00;;;;;;;26.88;16.95;;;8.20;99.90;;;;;;5008747;28;20804;-83
2021/04/29 11:38:27;;;;;;;30.17;16.92;;;8.20;99.90;;;;;;5027257;28;20069;-83
2021/04/29 11:40:53;;;;;;;24.52;15.07;;;8.30;99.90;;;;;;5027469;28;20084;-83
2021/04/29 11:43:22;;;;;;;26.85;16.20;;;8.30;99.90;;;;;;5016571;28;20119;-84
2021/04/29 11:45:51;;;;;;;42.08;18.88;;;8.30;99.90;;;;;;5012317;28;20045;-83
2021/04/29 11:48:24;;;;;;;49.50;20.38;;;8.20;99.90;;;;;;5018172;28;20398;-82
2021/04/29 11:50:54;;;;;;;26.15;15.43;;;8.20;99.90;;;;;;5022877;28;20491;-82
2021/04/29 11:53:28;;;;;;;25.35;14.98;;;8.30;99.90;;;;;;5005254;28;20115;-82
2021/04/29 11:56:05;;;;;;;27.27;15.10;;;8.40;99.90;;;;;;5011515;28;20064;-83
2021/04/29 11:58:34;;;;;;;23.20;14.70;;;8.50;99.90;;;;;;5027060;28;20041;-83
2021/04/29 12:01:01;;;;;;;26.48;15.30;;;8.50;99.90;;;;;;5008708;28;20045;-84
2021/04/29 12:03:33;;;;;;;25.45;15.88;;;8.60;99.90;;;;;;5025109;28;20142;-84
2021/04/29 12:06:06;;;;;;;23.45;15.25;;;8.70;99.90;;;;;;5026887;28;20492;-83
2021/04/29 12:08:35;;;;;;;23.75;14.85;;;8.70;99.90;;;;;;5013619;28;20059;-84
2021/04/29 12:11:05;;;;;;;23.38;14.05;;;8.80;99.90;;;;;;5008173;28;20057;-83
2021/04/29 12:13:42;;;;;;;20.73;13.55;;;8.90;99.90;;;;;;5002732;28;20053;-84
2021/04/29 12:16:31;;;;;;;23.80;14.77;;;8.90;99.90;;;;;;5009808;28;20115;-84
2021/04/29 12:18:57;;;;;;;25.08;15.18;;;8.90;99.90;;;;;;5024465;28;20045;-85
2021/04/29 12:21:32;;;;;;;19.90;13.70;;;8.90;99.90;;;;;;5028270;28;20152;-84
2021/04/29 12:24:03;;;;;;;16.20;11.65;;;9.00;99.90;;;;;;5009160;28;20095;-84
2021/04/29 12:26:38;;;;;;;16.08;10.10;;;9.00;99.90;;;;;;5015018;28;20053;-84
2021/04/29 12:29:08;;;;;;;15.18;10.95;;;9.00;99.90;;;;;;5026632;28;20057;-84
2021/04/29 12:31:35;;;;;;;17.98;10.60;;;8.90;99.90;;;;;;5026411;28;20076;-84
2021/04/29 12:34:20;;;;;;;18.05;11.32;;;9.10;99.90;;;;;;5006166;28;20103;-84
2021/04/29 12:37:05;;;;;;;15.73;10.32;;;9.10;99.90;;;;;;5022840;28;20428;-84
2021/04/29 12:39:43;;;;;;;15.73;9.27;;;9.20;99.90;;;;;;5007711;28;20057;-84
2021/04/29 12:42:14;;;;;;;12.80;9.27;;;9.00;99.90;;;;;;5013351;28;20049;-84
2021/04/29 12:44:49;;;;;;;12.77;8.82;;;8.90;99.90;;;;;;5010003;28;20076;-85
2021/04/29 12:47:31;;;;;;;11.45;7.53;;;8.80;99.90;;;;;;5025639;28;20041;-85
2021/04/29 12:50:11;;;;;;;9.38;6.68;;;8.60;99.90;;;;;;5013180;28;20071;-87